Time;durP1;ratioP1;P1;durP2;ratioP2;P2;SDS_P1;SDS_P2;PMS_P1;PMS_P2;Temp;Humidity;BMP_temperature;BMP_pressure;BME280_temperature;BME280_humidity;BME280_pressure;Samples;Min_cycle;Max_cycle;Signal;HPM_P1;HPM_P2
2020/12/17 00:00:06;;;;;;;38.63;21.00;;;7.50;99.90;;;;;;9963967;29;20193;-82
2020/12/17 00:05:28;;;;;;;35.73;22.33;;;7.40;99.90;;;;;;9990950;29;20228;-82
2020/12/17 00:10:50;;;;;;;32.03;20.57;;;7.40;99.90;;;;;;9988031;29;20228;-81
2020/12/17 00:16:12;;;;;;;34.20;22.07;;;7.40;99.90;;;;;;9984677;29;20688;-81
2020/12/17 00:21:34;;;;;;;28.90;19.73;;;7.40;99.90;;;;;;9988881;29;20235;-81
2020/12/17 00:26:56;;;;;;;32.87;20.27;;;7.40;99.90;;;;;;9984315;29;20193;-82
2020/12/17 00:32:18;;;;;;;31.17;19.70;;;7.30;99.90;;;;;;9979469;29;20241;-81
2020/12/17 00:37:40;;;;;;;30.43;20.47;;;7.30;99.90;;;;;;9957520;29;20753;-81
2020/12/17 00:43:02;;;;;;;29.83;19.60;;;7.30;99.90;;;;;;9966451;29;20217;-81
2020/12/17 00:48:24;;;;;;;31.83;20.17;;;7.20;99.90;;;;;;9991395;29;20197;-82
2020/12/17 00:53:46;;;;;;;29.17;19.70;;;7.20;99.90;;;;;;9981882;29;20236;-81
2020/12/17 00:59:08;;;;;;;29.77;19.17;;;7.20;99.90;;;;;;9972480;29;20204;-81
2020/12/17 01:04:30;;;;;;;32.07;20.77;;;7.20;99.90;;;;;;9956461;29;20226;-81
2020/12/17 01:09:51;;;;;;;32.47;20.30;;;7.20;99.90;;;;;;9956121;29;20230;-81
2020/12/17 01:15:14;;;;;;;33.83;21.13;;;7.20;99.90;;;;;;9974790;29;20235;-82
2020/12/17 01:20:36;;;;;;;32.00;19.40;;;7.10;99.90;;;;;;9976139;29;20224;-82
2020/12/17 01:25:57;;;;;;;30.90;19.73;;;7.10;99.90;;;;;;9952026;29;20209;-81
2020/12/17 01:31:20;;;;;;;33.00;19.83;;;7.10;99.90;;;;;;9951283;29;20237;-82
2020/12/17 01:36:42;;;;;;;33.30;20.50;;;7.10;99.90;;;;;;9984450;29;20582;-82
2020/12/17 01:42:03;;;;;;;30.20;18.90;;;7.10;99.90;;;;;;9987233;29;20221;-82
2020/12/17 01:47:35;;;;;;;29.37;19.93;;;7.10;99.90;;;;;;9984819;29;20201;-81
2020/12/17 01:52:57;;;;;;;26.97;18.60;;;7.10;99.90;;;;;;9969939;29;20217;-82
2020/12/17 01:58:25;;;;;;;28.50;19.20;;;7.10;99.90;;;;;;9987568;29;20592;-82
2020/12/17 02:03:48;;;;;;;28.23;18.90;;;7.10;99.90;;;;;;9985516;29;20224;-81
2020/12/17 02:09:10;;;;;;;30.50;19.70;;;7.20;99.90;;;;;;9972048;29;20697;-81
2020/12/17 02:14:32;;;;;;;31.43;20.50;;;7.20;99.90;;;;;;9970187;29;20237;-81
2020/12/17 02:19:54;;;;;;;27.77;18.17;;;7.40;99.90;;;;;;9990479;29;20185;-81
2020/12/17 02:25:17;;;;;;;27.73;17.90;;;7.40;99.90;;;;;;9986222;29;20305;-81
2020/12/17 02:30:38;;;;;;;25.10;17.67;;;7.40;99.90;;;;;;9981194;29;20235;-81
2020/12/17 02:36:00;;;;;;;24.70;18.20;;;7.40;99.90;;;;;;9963250;29;20198;-81
2020/12/17 02:41:23;;;;;;;25.97;16.70;;;7.50;99.90;;;;;;9950222;29;20303;-81
2020/12/17 02:46:44;;;;;;;25.07;16.87;;;7.60;99.90;;;;;;9958206;29;20630;-82
2020/12/17 02:52:06;;;;;;;24.07;16.13;;;7.80;99.90;;;;;;9962223;29;20223;-82
2020/12/17 02:57:28;;;;;;;29.57;17.53;;;7.90;99.90;;;;;;9983910;29;20269;-82
2020/12/17 03:02:50;;;;;;;24.97;16.33;;;7.90;99.90;;;;;;9972338;29;20729;-82
2020/12/17 03:08:12;;;;;;;25.70;16.53;;;7.80;99.90;;;;;;9975108;29;20201;-82
2020/12/17 03:13:34;;;;;;;24.33;15.90;;;7.90;99.90;;;;;;9985555;29;20293;-82
2020/12/17 03:18:56;;;;;;;25.43;16.33;;;7.90;99.90;;;;;;9973056;29;20296;-81
2020/12/17 03:24:18;;;;;;;21.40;15.23;;;7.90;99.90;;;;;;9971662;29;20230;-80
2020/12/17 03:29:40;;;;;;;24.47;15.93;;;7.90;99.90;;;;;;9985128;29;20285;-80
2020/12/17 03:35:02;;;;;;;23.80;16.20;;;7.90;99.90;;;;;;9982335;29;20193;-81
2020/12/17 03:40:25;;;;;;;24.27;16.40;;;8.00;99.90;;;;;;9992372;29;20224;-81
2020/12/17 03:45:47;;;;;;;21.77;14.73;;;7.90;99.90;;;;;;9979281;29;20197;-81
2020/12/17 03:51:09;;;;;;;21.40;14.30;;;7.90;99.90;;;;;;9991872;29;20233;-81
2020/12/17 03:56:31;;;;;;;23.53;15.87;;;7.90;99.90;;;;;;9990791;29;20225;-80
2020/12/17 04:01:53;;;;;;;23.27;15.17;;;7.90;99.90;;;;;;9991257;29;20217;-81
2020/12/17 04:07:15;;;;;;;24.53;15.23;;;7.90;99.90;;;;;;9990568;29;20688;-81
2020/12/17 04:12:37;;;;;;;23.93;15.27;;;7.90;99.90;;;;;;9991121;29;20312;-82
2020/12/17 04:17:59;;;;;;;22.37;15.40;;;7.90;99.90;;;;;;10001331;29;20204;-81
2020/12/17 04:23:21;;;;;;;22.23;15.27;;;7.90;99.90;;;;;;9993224;29;20225;-81
2020/12/17 04:28:43;;;;;;;20.97;14.63;;;7.80;99.90;;;;;;9975684;29;20262;-80
2020/12/17 04:34:05;;;;;;;22.40;15.03;;;7.80;99.90;;;;;;9961239;29;20227;-80
2020/12/17 04:39:27;;;;;;;21.37;14.33;;;7.80;99.90;;;;;;9988682;29;20209;-80
2020/12/17 04:44:50;;;;;;;26.47;14.77;;;7.80;99.90;;;;;;9987631;29;20225;-83
2020/12/17 04:50:15;;;;;;;22.20;14.20;;;7.60;99.90;;;;;;9962889;29;20241;-82
2020/12/17 04:55:39;;;;;;;22.20;14.60;;;7.70;99.90;;;;;;9975070;29;20201;-82
2020/12/17 05:01:01;;;;;;;21.30;14.93;;;7.70;99.90;;;;;;9987823;29;20221;-81
2020/12/17 05:06:25;;;;;;;20.87;15.00;;;7.70;99.90;;;;;;9989840;29;20206;-81
2020/12/17 05:11:47;;;;;;;21.83;14.80;;;7.80;99.90;;;;;;9990445;29;20236;-80
2020/12/17 05:17:09;;;;;;;20.67;13.97;;;7.80;99.90;;;;;;9991608;29;20204;-81
2020/12/17 05:22:31;;;;;;;20.23;13.70;;;7.80;99.90;;;;;;9954706;29;20214;-81
2020/12/17 05:27:53;;;;;;;19.60;13.63;;;7.90;99.90;;;;;;9986295;29;20212;-82
2020/12/17 05:33:15;;;;;;;21.10;13.90;;;7.80;99.90;;;;;;9989159;29;20600;-82
2020/12/17 05:38:37;;;;;;;18.97;13.00;;;7.90;99.90;;;;;;9976083;29;20205;-82
2020/12/17 05:44:09;;;;;;;19.20;13.80;;;7.80;99.90;;;;;;9961871;29;20944;-81
2020/12/17 05:49:31;;;;;;;19.40;13.50;;;7.90;99.90;;;;;;9955434;29;20272;-82
2020/12/17 05:55:01;;;;;;;19.77;14.17;;;7.90;99.90;;;;;;9986007;29;20194;-82
2020/12/17 06:00:23;;;;;;;23.00;13.40;;;8.00;99.90;;;;;;9964549;29;20255;-81
2020/12/17 06:05:45;;;;;;;17.73;12.63;;;7.90;99.90;;;;;;9999372;29;20209;-82
2020/12/17 06:11:10;;;;;;;17.63;12.77;;;7.90;99.90;;;;;;9957401;29;20271;-85
2020/12/17 06:16:31;;;;;;;16.07;12.27;;;8.00;99.90;;;;;;9983250;29;20281;-84
2020/12/17 06:21:54;;;;;;;19.97;12.80;;;8.00;99.90;;;;;;9949013;29;20221;-82
2020/12/17 06:27:25;;;;;;;21.90;13.47;;;8.00;99.90;;;;;;9950678;29;20198;-83
2020/12/17 06:32:48;;;;;;;18.70;13.13;;;7.90;99.90;;;;;;9983316;29;20228;-83
2020/12/17 06:38:15;;;;;;;17.70;12.40;;;7.90;99.90;;;;;;9984862;29;20201;-84
2020/12/17 06:43:38;;;;;;;18.00;11.93;;;8.00;99.90;;;;;;9976504;29;20266;-82
2020/12/17 06:49:00;;;;;;;18.80;12.10;;;8.00;99.90;;;;;;9977707;29;20293;-81
2020/12/17 06:54:40;;;;;;;19.87;12.83;;;8.10;99.90;;;;;;9969948;29;20236;-82
2020/12/17 07:00:07;;;;;;;16.00;11.47;;;8.10;99.90;;;;;;9982029;29;20548;-85
2020/12/17 07:05:51;;;;;;;18.60;12.47;;;8.10;99.90;;;;;;9983158;29;20213;-84
2020/12/17 07:11:35;;;;;;;16.03;12.17;;;8.20;99.90;;;;;;9994855;29;20235;-84
2020/12/17 07:16:59;;;;;;;16.60;11.83;;;8.10;99.90;;;;;;9982614;29;20269;-81
2020/12/17 07:22:20;;;;;;;14.40;10.90;;;8.10;99.90;;;;;;9950550;29;20217;-80
2020/12/17 07:27:50;;;;;;;17.33;11.93;;;8.20;99.90;;;;;;10021527;29;20219;-82
2020/12/17 07:33:12;;;;;;;15.50;11.37;;;8.30;99.90;;;;;;9999499;29;20240;-83
2020/12/17 07:38:35;;;;;;;16.30;10.70;;;8.40;99.90;;;;;;9999600;29;20207;-83
2020/12/17 07:43:57;;;;;;;15.37;11.20;;;8.40;99.90;;;;;;9992751;29;20244;-83
2020/12/17 07:49:24;;;;;;;20.10;11.37;;;8.30;99.90;;;;;;9984479;29;20241;-84
2020/12/17 07:54:45;;;;;;;14.47;10.13;;;8.40;99.90;;;;;;9974566;29;20221;-82
2020/12/17 08:00:07;;;;;;;13.40;10.10;;;8.40;99.90;;;;;;9992365;29;20743;-84
2020/12/17 08:05:32;;;;;;;16.70;10.83;;;8.60;99.90;;;;;;9982569;29;20212;-82
2020/12/17 08:10:53;;;;;;;14.83;10.50;;;8.60;99.90;;;;;;9971348;29;20241;-83
2020/12/17 08:16:15;;;;;;;14.83;10.50;;;8.70;99.90;;;;;;9960746;29;20206;-84
2020/12/17 08:21:41;;;;;;;15.77;10.77;;;8.60;99.90;;;;;;9994141;29;20590;-82
2020/12/17 08:27:03;;;;;;;14.43;10.93;;;8.80;99.90;;;;;;9995632;29;20215;-84
2020/12/17 08:32:25;;;;;;;16.23;12.47;;;8.80;99.90;;;;;;9978720;29;20221;-83
2020/12/17 08:37:47;;;;;;;15.37;10.80;;;8.80;99.90;;;;;;9990681;29;20204;-83
2020/12/17 08:43:11;;;;;;;15.07;9.73;;;9.00;99.90;;;;;;10011847;29;20233;-85
2020/12/17 08:48:35;;;;;;;15.40;10.57;;;8.90;99.90;;;;;;10018556;29;20231;-83
2020/12/17 08:53:58;;;;;;;12.70;10.07;;;9.00;99.90;;;;;;9996342;29;20230;-82
2020/12/17 08:59:19;;;;;;;14.63;10.37;;;9.00;99.90;;;;;;9988715;29;20209;-83
2020/12/17 09:04:54;;;;;;;13.07;10.20;;;9.00;99.90;;;;;;9976601;29;20764;-83
2020/12/17 09:10:17;;;;;;;13.63;9.13;;;9.10;99.90;;;;;;10017811;29;20221;-84
2020/12/17 09:15:38;;;;;;;12.53;10.03;;;9.10;99.90;;;;;;9985293;29;20207;-83
2020/12/17 09:21:11;;;;;;;13.27;10.70;;;9.20;99.90;;;;;;10010016;29;20224;-84
2020/12/17 09:26:34;;;;;;;12.37;9.33;;;9.10;99.90;;;;;;9993241;29;20210;-84
2020/12/17 09:31:56;;;;;;;16.77;10.47;;;9.30;99.90;;;;;;9973266;29;20230;-83
2020/12/17 09:37:18;;;;;;;13.23;9.77;;;9.30;99.90;;;;;;9956976;29;20205;-83
2020/12/17 09:42:40;;;;;;;12.47;9.07;;;9.30;99.90;;;;;;9977424;29;20658;-82
2020/12/17 09:48:14;;;;;;;15.57;10.97;;;9.40;99.90;;;;;;9987170;29;20229;-83
2020/12/17 09:53:38;;;;;;;18.23;11.03;;;9.40;99.90;;;;;;10007682;29;20228;-83
2020/12/17 09:59:00;;;;;;;15.57;10.47;;;9.40;99.90;;;;;;10028615;29;20208;-83
2020/12/17 10:04:22;;;;;;;14.90;11.43;;;9.40;99.90;;;;;;9987826;29;20229;-83
2020/12/17 10:09:43;;;;;;;15.50;12.13;;;9.30;99.90;;;;;;9981534;29;20221;-83
2020/12/17 10:15:06;;;;;;;15.67;11.77;;;9.30;99.90;;;;;;9984761;29;20774;-83
2020/12/17 10:20:28;;;;;;;16.20;11.17;;;9.30;99.90;;;;;;9984876;29;20230;-84
2020/12/17 10:25:50;;;;;;;15.70;12.20;;;9.40;99.90;;;;;;9972843;29;20683;-83
2020/12/17 10:31:14;;;;;;;17.27;11.53;;;9.50;99.90;;;;;;9962278;29;20237;-83
2020/12/17 10:36:39;;;;;;;17.60;12.47;;;9.40;99.90;;;;;;9991499;29;21032;-83
2020/12/17 10:42:02;;;;;;;19.10;13.47;;;9.30;99.90;;;;;;9983932;29;20641;-84
2020/12/17 10:47:24;;;;;;;20.97;13.93;;;9.40;99.90;;;;;;9987964;29;20208;-84
2020/12/17 10:52:47;;;;;;;17.60;12.97;;;9.50;99.90;;;;;;10009412;29;20271;-84
2020/12/17 10:58:08;;;;;;;17.87;12.90;;;9.60;99.90;;;;;;9989304;29;20265;-82
2020/12/17 11:03:31;;;;;;;18.77;13.67;;;9.70;99.90;;;;;;9983179;29;20229;-83
2020/12/17 11:08:53;;;;;;;18.47;13.83;;;9.70;99.90;;;;;;9987967;29;20205;-83
2020/12/17 11:14:14;;;;;;;18.30;13.10;;;9.70;99.90;;;;;;9982238;29;20217;-82
2020/12/17 11:19:37;;;;;;;17.67;13.43;;;9.70;99.90;;;;;;10004223;29;20196;-84
2020/12/17 11:24:58;;;;;;;19.87;12.93;;;9.70;99.90;;;;;;10010269;29;20209;-84
2020/12/17 11:30:20;;;;;;;17.33;13.10;;;9.80;99.90;;;;;;10014006;29;20278;-84
2020/12/17 11:35:42;;;;;;;17.93;12.93;;;9.80;99.90;;;;;;9984227;29;20212;-83
2020/12/17 11:41:04;;;;;;;17.53;12.57;;;9.90;99.90;;;;;;9982692;29;20233;-82
2020/12/17 11:46:26;;;;;;;16.53;12.90;;;9.90;99.90;;;;;;9959362;29;20221;-83
2020/12/17 11:51:51;;;;;;;20.90;13.57;;;9.90;99.90;;;;;;9975998;29;20302;-82
2020/12/17 11:57:13;;;;;;;14.27;12.00;;;10.00;99.90;;;;;;9969556;29;20221;-81
2020/12/17 12:02:35;;;;;;;18.70;11.93;;;10.00;99.90;;;;;;9982648;29;20233;-82
2020/12/17 12:07:57;;;;;;;15.43;11.87;;;10.10;99.90;;;;;;9970350;29;20210;-82
2020/12/17 12:13:19;;;;;;;11.70;10.50;;;10.20;99.90;;;;;;9973949;29;20226;-82
2020/12/17 12:18:41;;;;;;;9.63;8.47;;;10.40;99.90;;;;;;9956351;29;20209;-81
2020/12/17 12:24:04;;;;;;;11.13;9.57;;;10.60;99.90;;;;;;9968143;29;21042;-83
2020/12/17 12:29:25;;;;;;;16.03;12.23;;;10.70;99.90;;;;;;9975716;29;20211;-84
2020/12/17 12:34:47;;;;;;;8.53;7.10;;;10.70;99.90;;;;;;9967844;29;20225;-85
2020/12/17 12:40:10;;;;;;;12.13;8.33;;;10.80;99.90;;;;;;9986150;29;20568;-83
2020/12/17 12:45:31;;;;;;;10.03;7.63;;;10.70;99.90;;;;;;9964498;29;20230;-83
2020/12/17 12:50:53;;;;;;;7.07;5.97;;;10.70;99.90;;;;;;9981941;29;20233;-84
2020/12/17 12:56:22;;;;;;;7.47;6.53;;;10.70;99.90;;;;;;9992739;29;21030;-83
2020/12/17 13:01:44;;;;;;;7.30;5.80;;;10.80;99.90;;;;;;10004599;29;20228;-84
2020/12/17 13:07:06;;;;;;;6.70;5.30;;;10.90;99.90;;;;;;9995767;29;20206;-82
2020/12/17 13:12:28;;;;;;;6.30;4.73;;;10.80;99.90;;;;;;9989788;29;20776;-82
2020/12/17 13:17:50;;;;;;;6.80;4.60;;;10.90;99.90;;;;;;10003473;29;20209;-83
2020/12/17 13:23:12;;;;;;;5.07;4.40;;;10.80;99.90;;;;;;9988875;29;20263;-84
2020/12/17 13:28:34;;;;;;;6.13;4.33;;;10.90;99.90;;;;;;9987057;29;20202;-82
2020/12/17 13:33:57;;;;;;;6.00;4.87;;;10.80;99.90;;;;;;9966329;29;20227;-84
2020/12/17 13:39:18;;;;;;;5.40;4.90;;;10.80;99.90;;;;;;9976752;29;20197;-85
2020/12/17 13:44:41;;;;;;;15.43;8.57;;;10.70;99.90;;;;;;9986780;29;20230;-82
2020/12/17 13:50:03;;;;;;;11.93;7.33;;;10.80;99.90;;;;;;9994540;29;20369;-82
2020/12/17 13:55:26;;;;;;;14.80;8.30;;;10.80;99.90;;;;;;9959571;29;20270;-82
2020/12/17 14:00:48;;;;;;;11.30;8.00;;;10.90;99.90;;;;;;9984389;29;20224;-79
2020/12/17 14:06:10;;;;;;;15.67;10.03;;;10.90;99.90;;;;;;9962820;29;20785;-79
2020/12/17 14:11:32;;;;;;;21.10;11.27;;;10.90;99.90;;;;;;9986966;29;20222;-80
2020/12/17 14:16:54;;;;;;;14.47;9.63;;;10.90;99.90;;;;;;9952637;29;20220;-80
2020/12/17 14:22:16;;;;;;;31.10;14.57;;;11.00;99.90;;;;;;9964299;29;20218;-80
2020/12/17 14:27:37;;;;;;;16.37;8.17;;;10.90;99.90;;;;;;9967855;29;20199;-81
2020/12/17 14:33:00;;;;;;;10.07;7.37;;;10.90;99.90;;;;;;9958693;29;20227;-82
2020/12/17 14:38:21;;;;;;;8.17;5.90;;;10.70;99.90;;;;;;9960727;29;20209;-81
2020/12/17 14:43:43;;;;;;;7.47;5.87;;;10.70;99.90;;;;;;9965481;29;20229;-79
2020/12/17 14:49:06;;;;;;;6.47;5.37;;;10.70;99.90;;;;;;9968961;29;20201;-80
2020/12/17 14:54:27;;;;;;;5.03;4.50;;;10.60;99.90;;;;;;9982873;29;20750;-82
2020/12/17 14:59:49;;;;;;;7.13;4.63;;;10.60;99.90;;;;;;9979396;29;20201;-82
2020/12/17 15:05:12;;;;;;;6.20;4.03;;;10.60;99.90;;;;;;9945156;29;20209;-81
2020/12/17 15:10:33;;;;;;;4.83;4.03;;;10.60;99.90;;;;;;9979179;29;20231;-81
2020/12/17 15:15:55;;;;;;;8.07;4.40;;;10.60;99.90;;;;;;9996256;29;20224;-83
2020/12/17 15:21:21;;;;;;;7.27;5.40;;;10.50;99.90;;;;;;9986529;29;20232;-84
2020/12/17 15:26:42;;;;;;;7.80;5.30;;;10.50;99.90;;;;;;9978705;29;20209;-83
2020/12/17 15:32:04;;;;;;;8.20;4.30;;;10.60;99.90;;;;;;9972197;29;20238;-83
2020/12/17 15:37:27;;;;;;;10.40;4.33;;;10.50;99.90;;;;;;9984334;29;20497;-83
2020/12/17 15:42:48;;;;;;;5.63;4.00;;;10.50;99.90;;;;;;9999479;29;20266;-82
2020/12/17 15:48:10;;;;;;;5.73;3.60;;;10.40;99.90;;;;;;9994431;29;20916;-83
2020/12/17 15:53:33;;;;;;;4.53;3.40;;;10.40;99.90;;;;;;10011421;29;20232;-81
2020/12/17 15:58:55;;;;;;;6.63;4.37;;;10.40;99.90;;;;;;10031241;29;20224;-83
2020/12/17 16:04:22;;;;;;;7.17;4.60;;;10.40;99.90;;;;;;9996264;29;20229;-86
2020/12/17 16:09:44;;;;;;;7.27;3.63;;;10.30;99.90;;;;;;9992268;29;20213;-82
2020/12/17 16:15:06;;;;;;;6.90;3.13;;;10.20;99.90;;;;;;9995451;29;20205;-81
2020/12/17 16:20:30;;;;;;;6.10;3.30;;;10.00;99.90;;;;;;9999556;29;20236;-83
2020/12/17 16:25:52;;;;;;;7.67;3.27;;;9.90;99.90;;;;;;10000499;29;20209;-84
2020/12/17 16:31:23;;;;;;;5.20;3.20;;;9.80;99.90;;;;;;9996948;29;20237;-82
2020/12/17 16:36:44;;;;;;;4.40;3.40;;;9.60;99.90;;;;;;9994270;29;20201;-82
2020/12/17 16:42:07;;;;;;;5.80;4.00;;;9.50;99.90;;;;;;9992582;29;20225;-82
2020/12/17 16:47:29;;;;;;;8.67;4.77;;;9.40;99.90;;;;;;10038105;29;20215;-80
2020/12/17 16:52:50;;;;;;;8.07;5.20;;;9.30;99.90;;;;;;10004739;29;20233;-81
2020/12/17 16:58:13;;;;;;;8.80;5.57;;;9.30;99.90;;;;;;9992354;29;20205;-82
2020/12/17 17:03:35;;;;;;;7.83;5.30;;;9.20;99.90;;;;;;9996280;29;20221;-83
2020/12/17 17:08:57;;;;;;;9.03;4.77;;;9.10;99.90;;;;;;10000884;29;20243;-83
2020/12/17 17:14:20;;;;;;;6.23;4.70;;;9.30;99.90;;;;;;10006685;29;20296;-83
2020/12/17 17:19:42;;;;;;;6.83;4.90;;;9.50;99.90;;;;;;10030248;29;20295;-84
2020/12/17 17:25:04;;;;;;;5.67;4.20;;;9.60;99.90;;;;;;10031782;29;20204;-83
2020/12/17 17:30:26;;;;;;;8.00;3.70;;;9.70;99.90;;;;;;9971767;29;20599;-81
2020/12/17 17:35:48;;;;;;;6.77;2.87;;;9.60;99.90;;;;;;10014713;29;20228;-82
2020/12/17 17:41:10;;;;;;;4.23;2.80;;;9.60;99.90;;;;;;9995707;29;20229;-82
2020/12/17 17:46:32;;;;;;;5.13;2.87;;;9.70;99.90;;;;;;10001530;29;20206;-86
2020/12/17 17:51:55;;;;;;;8.33;3.30;;;9.70;99.90;;;;;;10007150;29;20233;-82
2020/12/17 17:57:17;;;;;;;9.50;4.17;;;9.70;99.90;;;;;;9994604;29;20213;-86
2020/12/17 18:02:39;;;;;;;7.53;5.43;;;9.70;99.90;;;;;;9996245;29;20245;-85
2020/12/17 18:08:01;;;;;;;10.50;4.80;;;9.70;99.90;;;;;;10014775;29;20205;-88
2020/12/17 18:13:23;;;;;;;6.33;3.83;;;9.80;99.90;;;;;;10014734;29;20241;-84
2020/12/17 18:18:46;;;;;;;7.57;4.27;;;9.80;99.90;;;;;;10008924;29;20829;-82
2020/12/17 18:24:08;;;;;;;8.07;3.47;;;9.70;99.90;;;;;;10010761;29;20225;-81
2020/12/17 18:29:30;;;;;;;7.07;3.50;;;9.70;99.90;;;;;;9985361;29;20702;-81
2020/12/17 18:34:52;;;;;;;5.20;3.70;;;9.70;99.90;;;;;;9985913;29;20256;-82
2020/12/17 18:40:14;;;;;;;7.63;3.77;;;9.60;99.90;;;;;;9985166;29;20221;-83
2020/12/17 18:45:36;;;;;;;10.13;4.00;;;9.50;99.90;;;;;;9987883;29;20203;-82
2020/12/17 18:50:58;;;;;;;7.37;4.27;;;9.50;99.90;;;;;;9984253;29;20809;-83
2020/12/17 18:56:21;;;;;;;10.87;4.43;;;9.50;99.90;;;;;;10021176;29;20292;-82
2020/12/17 19:01:44;;;;;;;9.93;4.17;;;9.60;99.90;;;;;;10011183;29;20328;-81
2020/12/17 19:07:07;;;;;;;9.40;4.50;;;9.70;99.90;;;;;;9997799;29;20205;-84
2020/12/17 19:12:29;;;;;;;7.20;4.40;;;9.60;99.90;;;;;;10036544;29;20224;-81
2020/12/17 19:17:51;;;;;;;10.83;6.80;;;9.60;99.90;;;;;;10016088;29;20208;-84
2020/12/17 19:23:14;;;;;;;10.70;5.40;;;9.60;99.90;;;;;;9976016;29;20233;-83
2020/12/17 19:28:36;;;;;;;7.60;5.33;;;9.60;99.90;;;;;;10004270;29;20739;-85
2020/12/17 19:33:58;;;;;;;8.23;5.60;;;9.40;99.90;;;;;;10007429;29;20224;-84
2020/12/17 19:39:21;;;;;;;6.60;4.37;;;9.40;99.90;;;;;;10031187;29;20204;-86
2020/12/17 19:44:43;;;;;;;9.00;5.13;;;9.50;99.90;;;;;;10021007;29;20225;-85
2020/12/17 19:50:05;;;;;;;10.00;5.90;;;9.60;99.90;;;;;;10010917;29;20383;-85
2020/12/17 19:55:28;;;;;;;9.07;6.00;;;9.70;99.90;;;;;;9976091;29;20263;-86
2020/12/17 20:00:50;;;;;;;21.37;8.57;;;9.70;99.90;;;;;;10020804;29;20216;-86
2020/12/17 20:06:12;;;;;;;10.90;6.60;;;9.70;99.90;;;;;;10030671;29;20561;-81
2020/12/17 20:11:35;;;;;;;15.03;7.50;;;9.60;99.90;;;;;;10000295;29;20797;-87
2020/12/17 20:16:58;;;;;;;18.23;7.87;;;9.60;99.90;;;;;;9999159;29;20239;-84
2020/12/17 20:22:19;;;;;;;17.17;7.10;;;9.40;99.90;;;;;;10000266;29;20215;-83
2020/12/17 20:27:46;;;;;;;16.73;6.70;;;9.40;99.90;;;;;;9996038;29;20292;-83
2020/12/17 20:33:08;;;;;;;19.77;10.00;;;9.40;99.90;;;;;;9983179;29;20236;-84
2020/12/17 20:38:30;;;;;;;19.83;7.50;;;9.30;99.90;;;;;;10005787;29;20208;-82
2020/12/17 20:43:55;;;;;;;21.80;9.67;;;9.30;99.90;;;;;;10032241;29;20239;-82
2020/12/17 20:49:18;;;;;;;14.03;6.77;;;9.20;99.90;;;;;;9995823;29;20660;-80
2020/12/17 20:54:41;;;;;;;16.37;7.80;;;9.00;99.90;;;;;;9982761;29;20252;-82
2020/12/17 21:00:04;;;;;;;12.83;6.67;;;9.00;99.90;;;;;;9988658;29;20198;-82
2020/12/17 21:05:25;;;;;;;15.77;8.43;;;8.80;99.90;;;;;;9981162;29;20296;-80
2020/12/17 21:10:49;;;;;;;13.63;6.87;;;8.70;99.90;;;;;;9967356;29;20751;-81
2020/12/17 21:16:14;;;;;;;15.83;7.77;;;8.60;99.90;;;;;;9980385;29;20209;-79
2020/12/17 21:21:36;;;;;;;10.53;5.67;;;8.70;99.90;;;;;;9969762;29;21590;-80
2020/12/17 21:26:59;;;;;;;16.83;7.37;;;8.70;99.90;;;;;;9962447;29;20573;-81
2020/12/17 21:32:24;;;;;;;12.33;5.63;;;8.70;99.90;;;;;;9981272;29;20731;-80
2020/12/17 21:37:47;;;;;;;16.13;6.67;;;8.60;99.90;;;;;;9981680;29;20232;-80
2020/12/17 21:43:08;;;;;;;12.83;6.27;;;8.40;99.90;;;;;;9971279;29;20714;-80
2020/12/17 21:48:31;;;;;;;13.50;6.23;;;8.30;99.90;;;;;;9973467;29;20200;-81
2020/12/17 21:53:53;;;;;;;13.67;6.63;;;8.20;99.90;;;;;;9973529;29;20241;-82
2020/12/17 21:59:15;;;;;;;9.77;5.83;;;8.10;99.90;;;;;;9987929;29;20571;-82
2020/12/17 22:04:37;;;;;;;10.40;6.30;;;8.00;99.90;;;;;;9956970;29;20233;-83
2020/12/17 22:09:59;;;;;;;11.70;6.47;;;8.00;99.90;;;;;;9974082;29;20204;-82
2020/12/17 22:15:21;;;;;;;11.50;5.77;;;7.90;99.90;;;;;;9997276;29;20696;-82
2020/12/17 22:20:44;;;;;;;9.27;6.00;;;7.80;99.90;;;;;;10007570;29;20251;-81
2020/12/17 22:26:06;;;;;;;13.93;6.00;;;7.70;99.90;;;;;;9998707;29;20237;-81
2020/12/17 22:31:29;;;;;;;11.23;6.00;;;7.60;99.90;;;;;;10029550;29;20228;-83
2020/12/17 22:36:52;;;;;;;14.87;6.87;;;7.60;99.90;;;;;;10006138;29;20232;-83
2020/12/17 22:42:13;;;;;;;15.53;7.87;;;7.60;99.90;;;;;;9989761;29;20228;-82
2020/12/17 22:47:35;;;;;;;10.80;7.43;;;7.60;99.90;;;;;;9983389;29;20205;-82
2020/12/17 22:52:58;;;;;;;10.03;6.33;;;7.60;99.90;;;;;;9988814;29;20293;-82
2020/12/17 22:58:19;;;;;;;7.43;4.97;;;7.60;99.90;;;;;;9986237;29;20197;-83
2020/12/17 23:03:41;;;;;;;7.40;4.50;;;7.70;99.90;;;;;;9988148;29;20229;-83
2020/12/17 23:09:06;;;;;;;8.83;4.60;;;7.70;99.90;;;;;;9989027;29;20203;-81
2020/12/17 23:14:28;;;;;;;8.27;4.37;;;7.70;99.90;;;;;;9987215;29;20221;-80
2020/12/17 23:19:49;;;;;;;10.97;4.60;;;7.60;99.90;;;;;;9987389;29;20205;-82
2020/12/17 23:25:12;;;;;;;12.07;4.70;;;7.50;99.90;;;;;;9988139;29;20204;-82
2020/12/17 23:30:33;;;;;;;8.30;3.80;;;7.60;99.90;;;;;;9987346;29;20225;-83
2020/12/17 23:35:55;;;;;;;7.70;3.83;;;7.60;99.90;;;;;;9986531;29;20592;-82
2020/12/17 23:41:18;;;;;;;10.20;4.50;;;7.80;99.90;;;;;;9985688;29;20229;-83
2020/12/17 23:46:44;;;;;;;8.50;3.83;;;7.80;99.90;;;;;;9983583;29;20202;-81
2020/12/17 23:52:07;;;;;;;7.13;4.50;;;7.70;99.90;;;;;;9985573;29;20217;-81
2020/12/17 23:57:30;;;;;;;8.77;3.80;;;7.90;99.90;;;;;;9990656;29;20201;-81
